Time;durP1;ratioP1;P1;durP2;ratioP2;P2;SDS_P1;SDS_P2;PMS_P1;PMS_P2;Temp;Humidity;BMP_temperature;BMP_pressure;BME280_temperature;BME280_humidity;BME280_pressure;Samples;Min_cycle;Max_cycle;Signal;HPM_P1;HPM_P2
2021/04/20 00:00:09;;;;;;;12.10;10.90;;;;;;;9.19;79.22;95610.41;5031418;28;20194;-82
2021/04/20 00:02:35;;;;;;;12.77;11.40;;;;;;;9.17;79.53;95611.56;5031296;28;20197;-82
2021/04/20 00:05:02;;;;;;;13.23;11.83;;;;;;;9.16;79.25;95604.81;5032558;28;20484;-83
2021/04/20 00:07:29;;;;;;;12.83;11.47;;;;;;;9.13;79.74;95611.06;5031882;28;20285;-82
2021/04/20 00:09:55;;;;;;;13.60;12.20;;;;;;;9.13;79.15;95613.66;5031401;28;20229;-82
2021/04/20 00:12:21;;;;;;;12.30;11.10;;;;;;;9.14;79.13;95607.53;5031747;28;20198;-81
2021/04/20 00:14:48;;;;;;;13.33;11.97;;;;;;;9.07;80.25;95610.94;5031737;28;20213;-82
2021/04/20 00:17:13;;;;;;;13.47;12.07;;;;;;;9.07;79.75;95605.78;5031116;28;20198;-83
2021/04/20 00:19:40;;;;;;;13.30;12.00;;;;;;;9.00;80.71;95609.03;5031176;28;20190;-83
2021/04/20 00:22:06;;;;;;;12.77;11.47;;;;;;;9.04;80.33;95601.81;5031102;28;20206;-83
2021/04/20 00:24:32;;;;;;;13.90;12.50;;;;;;;9.08;79.83;95603.06;5030461;28;20194;-82
2021/04/20 00:26:58;;;;;;;13.70;12.30;;;;;;;9.10;79.96;95608.03;5031381;28;20674;-83
2021/04/20 00:29:24;;;;;;;14.43;12.93;;;;;;;9.12;79.72;95603.53;5030574;28;20313;-82
2021/04/20 00:31:50;;;;;;;14.27;12.77;;;;;;;9.11;79.91;95596.78;5031141;28;20818;-81
2021/04/20 00:34:16;;;;;;;14.80;13.30;;;;;;;9.08;80.22;95592.78;5031206;28;20225;-83
2021/04/20 00:36:42;;;;;;;13.27;11.87;;;;;;;9.08;80.38;95602.25;5030661;28;20225;-83
2021/04/20 00:39:08;;;;;;;13.47;12.07;;;;;;;9.02;80.61;95595.25;5030916;28;20572;-83
2021/04/20 00:41:35;;;;;;;13.20;11.80;;;;;;;8.92;81.21;95583.38;5030760;28;20198;-82
2021/04/20 00:44:01;;;;;;;14.70;12.90;;;;;;;8.86;82.14;95585.81;5031268;28;20206;-80
2021/04/20 00:46:28;;;;;;;14.37;12.97;;;;;;;8.78;82.45;95586.66;5030354;28;20251;-81
2021/04/20 00:48:54;;;;;;;14.27;12.77;;;;;;;8.85;81.98;95581.66;5030977;28;20209;-82
2021/04/20 00:51:21;;;;;;;15.13;13.37;;;;;;;8.86;82.23;95593.50;5030968;28;20260;-81
2021/04/20 00:53:47;;;;;;;14.77;13.00;;;;;;;8.89;81.75;95581.16;5031501;28;20198;-81
2021/04/20 00:56:14;;;;;;;15.53;13.83;;;;;;;8.89;81.61;95578.56;5031005;28;20296;-81
2021/04/20 00:58:40;;;;;;;14.97;13.37;;;;;;;8.92;80.99;95588.53;5030612;28;20217;-81
2021/04/20 01:01:06;;;;;;;15.03;13.53;;;;;;;8.96;81.24;95589.00;5030159;28;20684;-82
2021/04/20 01:03:33;;;;;;;15.43;13.93;;;;;;;8.99;80.88;95586.09;5030136;28;20194;-82
2021/04/20 01:06:00;;;;;;;15.70;14.13;;;;;;;9.01;80.98;95584.16;5030644;28;20735;-82
2021/04/20 01:08:28;;;;;;;16.80;15.00;;;;;;;9.00;80.86;95585.13;5031395;28;20197;-82
2021/04/20 01:10:56;;;;;;;16.80;13.97;;;;;;;9.06;80.78;95584.44;5030089;28;20240;-82
2021/04/20 01:13:23;;;;;;;15.93;13.93;;;;;;;9.10;80.34;95585.72;5031178;28;20224;-83
2021/04/20 01:15:52;;;;;;;16.13;14.20;;;;;;;9.06;80.67;95583.66;5030618;28;20756;-82
2021/04/20 01:18:20;;;;;;;15.57;13.97;;;;;;;9.10;80.73;95592.63;5029653;28;20236;-81
2021/04/20 01:20:48;;;;;;;15.60;14.00;;;;;;;9.11;80.85;95587.31;5031316;28;20197;-80
2021/04/20 01:23:19;;;;;;;16.70;14.90;;;;;;;9.12;80.46;95585.56;5031715;28;20210;-82
2021/04/20 01:25:48;;;;;;;16.20;14.50;;;;;;;9.09;80.68;95586.69;5030717;28;20220;-82
2021/04/20 01:28:15;;;;;;;16.73;14.87;;;;;;;9.07;81.34;95585.25;5030955;28;20213;-83
2021/04/20 01:30:41;;;;;;;17.43;14.33;;;;;;;9.08;80.81;95585.09;5030847;28;20230;-82
2021/04/20 01:33:09;;;;;;;16.10;14.50;;;;;;;9.08;80.67;95585.09;5030779;28;20202;-82
2021/04/20 01:35:35;;;;;;;16.10;14.43;;;;;;;9.07;81.46;95580.13;5031376;28;20245;-82
2021/04/20 01:38:02;;;;;;;16.97;15.27;;;;;;;9.06;81.47;95589.59;5031360;28;20203;-82
2021/04/20 01:40:28;;;;;;;16.27;14.67;;;;;;;9.07;81.89;95582.69;5030860;28;20199;-81
2021/04/20 01:42:56;;;;;;;17.10;15.40;;;;;;;9.07;81.69;95585.25;5031038;28;20202;-82
2021/04/20 01:45:22;;;;;;;17.47;15.53;;;;;;;9.11;81.44;95584.75;5030987;28;20756;-82
2021/04/20 01:47:50;;;;;;;17.60;15.80;;;;;;;9.13;81.31;95584.59;5031003;28;20209;-81
2021/04/20 01:50:16;;;;;;;17.60;15.80;;;;;;;9.11;81.36;95586.53;5030152;28;20773;-82
2021/04/20 01:52:43;;;;;;;16.97;15.23;;;;;;;9.16;81.29;95574.78;5031375;28;20255;-81
2021/04/20 01:55:11;;;;;;;17.30;15.60;;;;;;;9.18;81.00;95585.69;5030687;28;20663;-82
2021/04/20 01:57:38;;;;;;;18.10;15.93;;;;;;;9.21;80.61;95582.00;5032082;28;20818;-83
2021/04/20 02:00:09;;;;;;;17.20;15.33;;;;;;;9.21;81.05;95585.38;5034636;28;20191;-82
2021/04/20 02:02:36;;;;;;;17.73;15.67;;;;;;;9.22;80.60;95578.47;5034607;28;20665;-83
2021/04/20 02:05:03;;;;;;;17.80;15.70;;;;;;;9.23;80.75;95582.63;5033786;28;20222;-83
2021/04/20 02:07:30;;;;;;;17.57;15.80;;;;;;;9.25;80.24;95584.03;5033902;28;20190;-82
2021/04/20 02:09:56;;;;;;;17.37;15.57;;;;;;;9.22;80.69;95586.97;5032625;28;20225;-82
2021/04/20 02:12:22;;;;;;;17.47;15.27;;;;;;;9.24;80.92;95576.50;5033447;28;20209;-82
2021/04/20 02:14:48;;;;;;;17.00;15.20;;;;;;;9.26;80.57;95572.00;5033368;28;20688;-82
2021/04/20 02:17:15;;;;;;;18.13;16.27;;;;;;;9.23;81.28;95574.94;5033654;28;20205;-82
2021/04/20 02:19:42;;;;;;;18.23;16.43;;;;;;;9.24;80.86;95577.31;5033594;28;20190;-82
2021/04/20 02:22:09;;;;;;;17.67;15.87;;;;;;;9.26;80.61;95580.50;5033605;28;20209;-83
2021/04/20 02:24:35;;;;;;;18.30;16.40;;;;;;;9.24;81.05;95582.44;5033180;28;20206;-82
2021/04/20 02:27:01;;;;;;;18.20;16.40;;;;;;;9.24;81.42;95582.44;5033489;28;20635;-82
2021/04/20 02:29:27;;;;;;;18.63;16.73;;;;;;;9.23;81.24;95582.63;5032281;28;20752;-81
2021/04/20 02:31:53;;;;;;;19.77;17.67;;;;;;;9.24;81.53;95579.06;5033667;28;20260;-81
2021/04/20 02:34:21;;;;;;;20.37;17.33;;;;;;;9.25;81.08;95583.25;5032931;28;20194;-81
2021/04/20 02:36:48;;;;;;;19.87;17.77;;;;;;;9.25;81.42;95575.53;5033792;28;20221;-81
2021/04/20 02:39:16;;;;;;;19.23;17.23;;;;;;;9.20;81.89;95577.81;5033806;28;20248;-81
2021/04/20 02:41:45;;;;;;;19.27;17.27;;;;;;;9.23;80.97;95580.06;5033869;28;20221;-81
2021/04/20 02:44:11;;;;;;;21.00;18.80;;;;;;;9.23;81.11;95578.31;5033808;28;20206;-81
2021/04/20 02:46:37;;;;;;;21.77;17.83;;;;;;;9.27;80.95;95578.75;5033787;28;20218;-82
2021/04/20 02:49:04;;;;;;;21.20;19.00;;;;;;;9.30;80.96;95579.22;5032987;28;20202;-82
2021/04/20 02:51:31;;;;;;;20.73;18.03;;;;;;;9.29;80.61;95572.47;5033371;28;20210;-81
2021/04/20 02:53:58;;;;;;;20.03;18.03;;;;;;;9.23;80.95;95586.00;5032819;28;20296;-83
2021/04/20 02:56:25;;;;;;;21.50;18.70;;;;;;;9.24;81.29;95571.34;5033160;28;20226;-82
2021/04/20 02:58:52;;;;;;;21.30;19.03;;;;;;;9.20;80.94;95567.56;5032895;28;20198;-82
2021/04/20 03:01:23;;;;;;;20.93;18.77;;;;;;;9.10;81.82;95575.44;5032416;28;20213;-81
2021/04/20 03:03:50;;;;;;;22.07;19.67;;;;;;;9.12;81.28;95568.38;5032746;28;20190;-81
2021/04/20 03:06:17;;;;;;;20.83;18.67;;;;;;;9.10;81.86;95566.94;5032975;28;20226;-82
2021/04/20 03:08:44;;;;;;;20.57;18.37;;;;;;;9.10;81.99;95572.88;5032596;28;20190;-82
2021/04/20 03:11:23;;;;;;;21.90;19.57;;;;;;;9.15;81.90;95569.81;5031083;28;20233;-82
2021/04/20 03:14:00;;;;;;;21.10;19.00;;;;;;;9.17;81.31;95571.25;5032491;28;20198;-82
2021/04/20 03:16:26;;;;;;;21.60;19.33;;;;;;;9.19;81.55;95569.31;5032892;28;20218;-83
2021/04/20 03:18:52;;;;;;;20.30;18.13;;;;;;;9.14;82.65;95571.59;5032343;28;20202;-82
2021/04/20 03:21:18;;;;;;;22.07;19.77;;;;;;;9.18;82.07;95565.16;5032595;28;20194;-83
2021/04/20 03:23:46;;;;;;;21.73;19.40;;;;;;;9.16;82.50;95569.66;5032423;28;20264;-81
2021/04/20 03:26:33;;;;;;;23.17;20.50;;;;;;;9.19;82.19;95563.38;5032920;28;20234;-82
2021/04/20 03:29:03;;;;;;;23.27;19.90;;;;;;;9.18;82.28;95560.00;5032946;28;20190;-82
2021/04/20 03:31:29;;;;;;;22.60;20.13;;;;;;;9.17;81.80;95560.19;5032816;28;20222;-82
2021/04/20 03:34:01;;;;;;;21.63;19.33;;;;;;;9.14;81.95;95568.22;5033110;28;20205;-81
2021/04/20 03:36:32;;;;;;;21.97;19.60;;;;;;;9.12;81.97;95559.88;5032375;28;20229;-81
2021/04/20 03:39:06;;;;;;;21.77;19.43;;;;;;;9.11;81.79;95561.63;5031965;28;20277;-82
2021/04/20 03:41:37;;;;;;;22.30;19.90;;;;;;;9.07;82.53;95560.38;5031715;28;20202;-83
2021/04/20 03:44:08;;;;;;;22.13;19.73;;;;;;;8.98;82.46;95551.13;5033304;28;20206;-81
2021/04/20 03:46:36;;;;;;;23.10;20.67;;;;;;;9.03;82.75;95554.00;5032778;28;20779;-82
2021/04/20 03:49:12;;;;;;;23.40;20.90;;;;;;;9.06;82.82;95557.97;5032828;28;20187;-82
2021/04/20 03:51:42;;;;;;;23.40;20.47;;;;;;;9.06;82.46;95558.75;5032118;28;20208;-82
2021/04/20 03:54:11;;;;;;;22.60;20.30;;;;;;;9.07;82.52;95554.44;5032959;28;20206;-83
2021/04/20 03:56:39;;;;;;;23.73;21.23;;;;;;;9.11;82.79;95560.84;5032521;28;20214;-82
2021/04/20 03:59:07;;;;;;;23.63;20.97;;;;;;;9.10;82.82;95564.38;5032572;28;20202;-81
2021/04/20 04:01:38;;;;;;;23.87;19.80;;;;;;;9.10;82.63;95562.59;5032672;28;20197;-82
2021/04/20 04:04:07;;;;;;;22.40;20.00;;;;;;;9.09;82.49;95563.56;5012515;28;20203;-83
2021/04/20 04:06:36;;;;;;;21.93;19.27;;;;;;;9.10;82.26;95556.66;5015358;28;20226;-83
2021/04/20 04:09:03;;;;;;;22.77;20.27;;;;;;;9.12;82.44;95558.09;5032295;28;20197;-82
2021/04/20 04:11:32;;;;;;;23.30;20.13;;;;;;;9.07;82.42;95549.28;5034253;28;20271;-83
2021/04/20 04:14:02;;;;;;;22.17;19.77;;;;;;;9.05;82.29;95559.72;5032408;28;20194;-83
2021/04/20 04:16:30;;;;;;;23.83;20.17;;;;;;;9.06;82.49;95563.09;5032784;28;20226;-82
2021/04/20 04:18:57;;;;;;;23.10;20.30;;;;;;;9.07;82.31;95560.38;5031874;28;20679;-82
2021/04/20 04:21:28;;;;;;;24.43;20.63;;;;;;;9.05;82.67;95559.72;5031884;28;20278;-82
2021/04/20 04:23:57;;;;;;;22.37;19.97;;;;;;;9.09;82.69;95555.06;5031959;28;20201;-82
2021/04/20 04:26:27;;;;;;;23.00;20.10;;;;;;;9.08;82.65;95561.16;5031875;28;20225;-82
2021/04/20 04:28:57;;;;;;;24.60;20.57;;;;;;;9.00;82.93;95557.69;5032808;28;20278;-80
2021/04/20 04:31:25;;;;;;;23.60;21.03;;;;;;;9.00;82.89;95555.13;5032191;28;20218;-80
2021/04/20 04:33:51;;;;;;;21.53;19.27;;;;;;;8.94;82.89;95554.97;5032202;28;20194;-81
2021/04/20 04:36:19;;;;;;;23.63;21.13;;;;;;;8.99;82.28;95558.66;5032351;28;20226;-82
2021/04/20 04:38:46;;;;;;;21.97;19.67;;;;;;;8.95;82.96;95559.16;5031751;28;20201;-82
2021/04/20 04:41:12;;;;;;;22.50;20.10;;;;;;;8.98;83.00;95564.75;5030814;28;20206;-81
2021/04/20 04:43:41;;;;;;;28.17;24.77;;;;;;;8.96;82.84;95560.75;5031441;28;20198;-82
2021/04/20 04:46:08;;;;;;;28.43;25.27;;;;;;;9.06;82.22;95570.81;5029928;28;20225;-82
2021/04/20 04:48:37;;;;;;;23.30;20.80;;;;;;;9.05;82.10;95570.00;5017097;28;20268;-82
2021/04/20 04:51:05;;;;;;;22.37;19.93;;;;;;;9.10;81.67;95570.31;5026895;28;20241;-80
2021/04/20 04:53:34;;;;;;;40.27;34.93;;;;;;;9.09;81.97;95580.75;5029264;28;20281;-81
2021/04/20 04:56:02;;;;;;;27.40;24.50;;;;;;;9.01;82.56;95573.91;5030654;28;20233;-82
2021/04/20 04:58:30;;;;;;;24.93;21.33;;;;;;;9.06;81.98;95573.38;5027805;28;20202;-82
2021/04/20 05:00:59;;;;;;;22.63;20.23;;;;;;;8.98;82.56;95569.91;5030010;28;20197;-81
2021/04/20 05:03:26;;;;;;;23.33;20.83;;;;;;;9.00;82.42;95572.28;5028664;28;20244;-81
2021/04/20 05:05:54;;;;;;;24.13;20.00;;;;;;;9.04;82.20;95576.13;5029224;28;20218;-80
2021/04/20 05:08:20;;;;;;;23.03;19.60;;;;;;;9.07;81.68;95573.22;5029683;28;20696;-80
2021/04/20 05:10:46;;;;;;;25.07;21.20;;;;;;;9.10;81.95;95577.22;5028608;28;20650;-82
2021/04/20 05:13:12;;;;;;;22.23;19.93;;;;;;;9.12;81.77;95575.28;5029349;28;20263;-81
2021/04/20 05:15:38;;;;;;;22.17;19.77;;;;;;;9.13;81.40;95579.47;5029751;28;20229;-82
2021/04/20 05:18:09;;;;;;;21.53;19.23;;;;;;;9.19;80.98;95586.50;5029452;28;20218;-82
2021/04/20 05:20:40;;;;;;;22.07;19.30;;;;;;;9.19;80.93;95583.94;5028145;28;20198;-80
2021/04/20 05:23:06;;;;;;;22.57;19.70;;;;;;;9.20;80.58;95588.91;5029867;28;20206;-81
2021/04/20 05:25:32;;;;;;;22.60;20.03;;;;;;;9.18;81.38;95583.13;5028873;28;20241;-81
2021/04/20 05:27:58;;;;;;;22.10;19.90;;;;;;;9.22;80.70;95584.41;5030127;28;20622;-81
2021/04/20 05:30:26;;;;;;;22.03;19.73;;;;;;;9.27;81.16;95586.44;5027640;28;20214;-81
2021/04/20 05:32:53;;;;;;;22.00;19.77;;;;;;;9.30;81.01;95578.41;5031007;28;20202;-81
2021/04/20 05:35:19;;;;;;;23.50;20.00;;;;;;;9.34;80.85;95579.69;5030880;28;20257;-81
2021/04/20 05:37:47;;;;;;;23.00;19.40;;;;;;;9.37;80.81;95587.06;5033183;28;20198;-80
2021/04/20 05:40:15;;;;;;;22.40;20.00;;;;;;;9.35;80.74;95576.94;5029807;28;20229;-80
2021/04/20 05:42:42;;;;;;;22.67;20.23;;;;;;;9.41;80.27;95582.38;5033040;28;20213;-79
2021/04/20 05:45:11;;;;;;;23.07;19.93;;;;;;;9.45;79.98;95576.72;5032437;28;20222;-82
2021/04/20 05:47:38;;;;;;;22.10;19.70;;;;;;;9.45;80.33;95574.16;5029655;28;20210;-81
2021/04/20 05:50:06;;;;;;;24.30;20.70;;;;;;;9.45;79.88;95569.00;5032585;28;20222;-82
2021/04/20 05:52:33;;;;;;;24.80;20.47;;;;;;;9.42;80.40;95571.13;5032826;28;20634;-82
2021/04/20 05:55:00;;;;;;;21.93;19.63;;;;;;;9.42;80.51;95564.22;5032790;28;20218;-81
2021/04/20 05:57:26;;;;;;;21.63;19.33;;;;;;;9.41;80.49;95572.91;5032731;28;20202;-81
2021/04/20 05:59:57;;;;;;;21.03;18.77;;;;;;;9.44;80.12;95572.53;5032688;28;20200;-82
2021/04/20 06:02:25;;;;;;;21.63;19.43;;;;;;;9.42;80.24;95569.38;5032149;28;20221;-81
2021/04/20 06:04:55;;;;;;;21.23;18.87;;;;;;;9.43;80.08;95577.88;5032711;28;20206;-81
2021/04/20 06:07:22;;;;;;;22.40;19.60;;;;;;;9.45;80.41;95574.16;5032054;28;20225;-80
2021/04/20 06:09:49;;;;;;;21.23;19.03;;;;;;;9.49;80.57;95577.97;5031697;28;20256;-81
2021/04/20 06:12:17;;;;;;;22.17;19.80;;;;;;;9.47;79.70;95577.34;5029459;28;20252;-79
2021/04/20 06:14:44;;;;;;;20.87;18.67;;;;;;;9.49;79.82;95585.69;5029779;28;20217;-81
2021/04/20 06:17:13;;;;;;;21.00;18.70;;;;;;;9.52;79.82;95585.34;5032053;28;20225;-80
2021/04/20 06:19:41;;;;;;;21.23;18.73;;;;;;;9.48;80.09;95591.00;5030751;28;20237;-81
2021/04/20 06:22:12;;;;;;;22.23;19.83;;;;;;;9.53;79.17;95586.16;5032887;28;20205;-81
2021/04/20 06:24:39;;;;;;;20.60;18.50;;;;;;;9.53;79.15;95589.53;5032557;28;20293;-82
2021/04/20 06:27:06;;;;;;;20.00;17.67;;;;;;;9.53;78.65;95594.66;5032030;28;20205;-81
2021/04/20 06:29:33;;;;;;;17.73;15.93;;;;;;;9.66;79.89;95594.09;5033401;28;20256;-83
2021/04/20 06:32:06;;;;;;;17.93;16.00;;;;;;;9.80;80.13;95595.97;5032178;28;20194;-82
2021/04/20 06:34:33;;;;;;;15.20;13.60;;;;;;;9.95;79.66;95599.38;5031032;28;20198;-83
2021/04/20 06:36:59;;;;;;;15.57;13.93;;;;;;;10.17;79.16;95596.97;5032625;28;20246;-82
2021/04/20 06:39:25;;;;;;;18.13;15.30;;;;;;;10.34;77.86;95601.03;5030366;28;20206;-83
2021/04/20 06:41:53;;;;;;;16.83;15.13;;;;;;;10.44;77.13;95601.56;5031712;28;20206;-82
2021/04/20 06:44:22;;;;;;;17.60;15.80;;;;;;;10.45;76.03;95610.88;5029544;28;20194;-83
2021/04/20 06:46:54;;;;;;;19.87;17.57;;;;;;;10.40;74.82;95610.59;5030524;28;20254;-80
2021/04/20 06:49:23;;;;;;;21.33;18.53;;;;;;;10.25;75.22;95615.72;5030251;28;20662;-82
2021/04/20 06:51:52;;;;;;;22.67;18.70;;;;;;;10.16;75.31;95614.19;5033099;28;20215;-81
2021/04/20 06:54:26;;;;;;;18.90;16.97;;;;;;;10.13;75.50;95617.09;5029195;28;20202;-81
2021/04/20 06:57:00;;;;;;;20.60;18.40;;;;;;;10.09;76.22;95620.97;5028750;28;20220;-81
2021/04/20 06:59:34;;;;;;;20.77;18.27;;;;;;;10.03;76.49;95619.06;5031490;28;20197;-82
2021/04/20 07:02:10;;;;;;;20.07;17.77;;;;;;;10.04;76.95;95612.97;5029607;28;20194;-81
2021/04/20 07:04:43;;;;;;;20.13;17.83;;;;;;;10.06;76.47;95621.31;5030528;28;20347;-80
2021/04/20 07:07:22;;;;;;;20.43;18.30;;;;;;;10.00;76.69;95622.03;5029969;28;20629;-80
2021/04/20 07:09:56;;;;;;;19.70;17.43;;;;;;;10.05;76.62;95622.28;5022623;28;20689;-81
2021/04/20 07:12:23;;;;;;;21.73;17.83;;;;;;;10.08;77.01;95621.94;5028910;28;20199;-83
2021/04/20 07:14:55;;;;;;;19.60;17.50;;;;;;;10.14;76.29;95623.84;5029135;28;20662;-83
2021/04/20 07:18:15;;;;;;;19.30;17.30;;;;;;;10.17;76.13;95626.06;5029488;28;20194;-82
2021/04/20 07:20:54;;;;;;;19.57;17.47;;;;;;;10.18;77.10;95625.09;4919538;29;20201;-81
2021/04/20 07:23:32;;;;;;;19.03;16.97;;;;;;;10.14;76.20;95617.88;4950045;29;20205;-80
2021/04/20 07:26:15;;;;;;;20.40;17.60;;;;;;;10.13;76.15;95618.88;5010083;28;20256;-81
2021/04/20 07:28:57;;;;;;;19.63;17.47;;;;;;;10.13;76.82;95621.44;5028080;28;20194;-82
2021/04/20 07:31:35;;;;;;;21.23;17.30;;;;;;;10.20;75.70;95615.44;5030596;28;20228;-83
2021/04/20 07:34:11;;;;;;;19.37;17.37;;;;;;;10.25;75.42;95620.06;5031428;28;20194;-82
2021/04/20 07:36:56;;;;;;;20.03;17.93;;;;;;;10.30;75.05;95620.34;5030688;28;20226;-82
2021/04/20 07:39:23;;;;;;;19.37;17.13;;;;;;;10.33;75.53;95620.81;5030912;28;20701;-81
2021/04/20 07:41:52;;;;;;;18.80;16.77;;;;;;;10.36;75.39;95619.69;5031530;28;20194;-82
2021/04/20 07:44:30;;;;;;;19.13;17.23;;;;;;;10.33;74.64;95615.66;5030121;28;20194;-83
2021/04/20 07:46:58;;;;;;;18.70;16.70;;;;;;;10.26;75.58;95625.03;5031355;28;20277;-80
2021/04/20 07:49:34;;;;;;;19.07;17.07;;;;;;;10.28;75.00;95622.31;5030754;28;20214;-80
2021/04/20 07:52:04;;;;;;;18.67;16.63;;;;;;;10.29;74.98;95618.75;5031890;28;20277;-81
2021/04/20 07:54:42;;;;;;;19.30;17.30;;;;;;;10.32;74.56;95621.00;5030526;28;20210;-83
2021/04/20 07:57:14;;;;;;;18.93;16.80;;;;;;;10.35;74.44;95624.03;5024865;28;20202;-80
2021/04/20 07:59:54;;;;;;;19.33;16.53;;;;;;;10.37;74.36;95623.84;5025910;28;20206;-80
2021/04/20 08:02:30;;;;;;;18.03;16.10;;;;;;;10.44;74.33;95614.44;5027708;28;20186;-82
2021/04/20 08:05:02;;;;;;;19.53;17.03;;;;;;;10.48;74.21;95625.19;5028789;28;20198;-83
2021/04/20 08:07:39;;;;;;;17.60;15.60;;;;;;;10.60;74.53;95618.63;5031378;28;20213;-81
2021/04/20 08:10:08;;;;;;;18.33;16.10;;;;;;;10.65;73.13;95617.13;5027700;28;20233;-82
2021/04/20 08:12:45;;;;;;;17.73;15.93;;;;;;;10.68;73.07;95619.38;5028925;28;20209;-80
2021/04/20 08:15:18;;;;;;;18.80;16.80;;;;;;;10.75;73.11;95608.38;5030214;28;20240;-82
2021/04/20 08:17:50;;;;;;;18.03;16.20;;;;;;;10.78;72.55;95618.28;5030043;28;20210;-81
2021/04/20 08:20:21;;;;;;;18.53;16.57;;;;;;;10.80;72.44;95619.72;5029549;28;20198;-82
2021/04/20 08:22:50;;;;;;;19.77;16.67;;;;;;;10.72;71.89;95615.47;5029801;28;20217;-81
2021/04/20 08:25:21;;;;;;;18.53;16.57;;;;;;;10.82;71.95;95620.34;5028591;28;20858;-82
2021/04/20 08:27:52;;;;;;;19.20;16.60;;;;;;;10.81;72.05;95623.09;5028667;28;20210;-81
2021/04/20 08:30:23;;;;;;;18.30;16.37;;;;;;;10.83;72.58;95621.16;5029045;28;20226;-82
2021/04/20 08:32:53;;;;;;;17.73;15.77;;;;;;;10.85;72.53;95611.47;5020476;28;20229;-81
2021/04/20 08:35:23;;;;;;;18.67;16.67;;;;;;;10.88;72.44;95617.06;5029939;28;20261;-80
2021/04/20 08:38:05;;;;;;;17.83;15.93;;;;;;;10.90;73.27;95622.06;5028392;28;20376;-80
2021/04/20 08:40:40;;;;;;;18.40;16.13;;;;;;;10.94;72.15;95624.09;5029410;28;20237;-83
2021/04/20 08:43:19;;;;;;;20.70;17.10;;;;;;;10.89;71.96;95613.53;5031070;28;20732;-81
2021/04/20 08:46:02;;;;;;;17.63;15.70;;;;;;;10.93;71.65;95611.41;5028870;28;20225;-82
2021/04/20 08:48:38;;;;;;;17.70;15.77;;;;;;;10.93;71.41;95617.34;5029245;28;20206;-83
2021/04/20 08:51:13;;;;;;;17.33;15.63;;;;;;;11.05;71.16;95625.41;5029047;28;20292;-83
2021/04/20 08:54:02;;;;;;;17.83;15.90;;;;;;;11.09;70.64;95613.78;5029132;28;20205;-80
2021/04/20 08:56:33;;;;;;;18.47;16.37;;;;;;;11.06;70.90;95611.56;5028436;28;20226;-80
2021/04/20 08:59:14;;;;;;;18.57;16.57;;;;;;;10.87;72.53;95614.66;5026662;28;20280;-81
2021/04/20 09:02:14;;;;;;;19.60;16.40;;;;;;;11.05;71.98;95617.69;5029488;28;20199;-83
2021/04/20 09:05:02;;;;;;;17.97;16.07;;;;;;;11.18;71.24;95615.28;5030604;28;20697;-82
2021/04/20 09:07:33;;;;;;;17.20;15.37;;;;;;;11.16;70.51;95613.88;5026157;28;20229;-80
2021/04/20 09:10:05;;;;;;;17.33;15.53;;;;;;;11.27;70.58;95608.25;5030676;28;20610;-82
2021/04/20 09:12:42;;;;;;;17.50;15.70;;;;;;;11.24;69.90;95614.56;5030586;28;20202;-81
2021/04/20 09:15:14;;;;;;;16.53;14.83;;;;;;;11.19;69.35;95616.06;5032679;28;20226;-82
2021/04/20 09:17:48;;;;;;;18.53;14.07;;;;;;;11.25;69.22;95612.78;5030828;28;20202;-79
2021/04/20 09:20:20;;;;;;;15.67;14.07;;;;;;;11.41;69.05;95612.59;5030946;28;20201;-78
2021/04/20 09:22:56;;;;;;;16.40;14.70;;;;;;;11.56;69.11;95607.38;5029764;28;20197;-79
2021/04/20 09:25:25;;;;;;;15.63;14.17;;;;;;;11.73;68.33;95613.94;5030910;28;20222;-80
2021/04/20 09:28:03;;;;;;;16.10;14.40;;;;;;;11.88;66.90;95609.56;5031269;28;20292;-81
2021/04/20 09:30:33;;;;;;;15.63;14.03;;;;;;;12.08;66.87;95600.22;5031007;28;20225;-81
2021/04/20 09:33:07;;;;;;;18.33;14.87;;;;;;;12.09;64.42;95604.41;5031213;28;20206;-82
2021/04/20 09:35:34;;;;;;;16.27;14.50;;;;;;;12.13;66.13;95604.00;5030269;28;20316;-82
2021/04/20 09:38:03;;;;;;;16.60;14.90;;;;;;;12.07;67.21;95606.38;5030523;28;20194;-81
2021/04/20 09:40:31;;;;;;;16.53;14.77;;;;;;;11.98;67.09;95610.03;5030331;28;20209;-80
2021/04/20 09:43:08;;;;;;;16.83;15.03;;;;;;;11.97;66.79;95611.03;5031344;28;20656;-82
2021/04/20 09:45:39;;;;;;;16.40;14.80;;;;;;;11.91;65.38;95610.97;5030068;28;20226;-79
2021/04/20 09:48:24;;;;;;;16.90;14.87;;;;;;;11.89;66.92;95610.38;5031283;28;20245;-80
2021/04/20 09:51:02;;;;;;;16.33;14.63;;;;;;;11.94;65.65;95603.66;5025003;28;20389;-79
2021/04/20 09:53:43;;;;;;;16.57;14.87;;;;;;;12.22;66.18;95597.75;5030678;28;20257;-82
2021/04/20 09:56:24;;;;;;;16.97;15.07;;;;;;;12.46;63.96;95605.09;5030868;28;20697;-82
2021/04/20 09:59:03;;;;;;;16.53;14.83;;;;;;;12.33;64.27;95595.44;5025096;28;20214;-83
2021/04/20 10:02:20;;;;;;;17.13;15.20;;;;;;;12.16;64.74;95603.66;5031355;28;20205;-81
2021/04/20 10:05:25;;;;;;;17.17;14.37;;;;;;;12.20;65.33;95599.72;5028820;28;20209;-82
2021/04/20 10:08:15;;;;;;;17.57;14.87;;;;;;;12.32;64.43;95596.44;5026111;28;20252;-83
2021/04/20 10:11:09;;;;;;;16.40;14.63;;;;;;;12.42;63.74;95602.09;5022886;28;20222;-82
2021/04/20 10:14:03;;;;;;;;;;;;;;;;;;;;;
2021/04/20 10:20:19;;;;;;;15.93;13.90;;;;;;;12.37;62.55;95601.84;5013791;28;20202;-81
2021/04/20 10:22:58;;;;;;;16.80;13.93;;;;;;;12.38;63.35;95598.28;5032341;28;20209;-82
2021/04/20 10:25:49;;;;;;;15.90;13.53;;;;;;;12.42;61.67;95596.94;5047534;23;20223;-82
2021/04/20 10:28:32;;;;;;;14.80;13.40;;;;;;;12.57;61.61;95594.25;4990095;28;20267;-80
2021/04/20 10:31:38;;;;;;;16.03;12.67;;;;;;;12.61;59.46;95589.50;4986658;28;20718;-83
2021/04/20 10:34:22;;;;;;;14.33;11.80;;;;;;;12.67;61.27;95594.72;4988376;28;20711;-82
2021/04/20 10:40:37;;;;;;;;;;;;;;;;;;;;;
2021/04/20 10:43:40;;;;;;;14.53;13.07;;;;;;;12.55;59.80;95577.34;4989157;28;20192;-81
2021/04/20 10:52:55;;;;;;;13.83;12.33;;;;;;;12.66;61.80;95579.41;4884357;29;20297;-81
2021/04/20 10:58:48;;;;;;;13.90;12.43;;;;;;;12.72;61.74;95570.88;5097620;23;20229;-83
2021/04/20 11:02:02;;;;;;;14.77;13.30;;;;;;;12.56;60.40;95574.56;5046571;28;20554;-84
2021/04/20 11:04:32;;;;;;;14.60;12.47;;;;;;;12.53;60.92;95569.78;5051669;28;20221;-80
2021/04/20 11:07:18;;;;;;;14.47;12.97;;;;;;;12.46;61.56;95571.53;5050355;28;20221;-82
2021/04/20 11:09:45;;;;;;;14.00;12.47;;;;;;;12.50;61.03;95566.78;5036876;28;20843;-81
2021/04/20 11:12:13;;;;;;;13.87;11.77;;;;;;;12.43;60.79;95566.75;5051209;28;20221;-81
2021/04/20 11:14:40;;;;;;;15.13;12.80;;;;;;;12.39;60.29;95563.72;5052167;28;20271;-81
2021/04/20 11:17:13;;;;;;;15.27;12.80;;;;;;;12.36;60.22;95568.47;5042268;28;20217;-80
2021/04/20 11:19:45;;;;;;;12.87;11.67;;;;;;;12.39;60.80;95566.31;5050868;28;20205;-81
2021/04/20 11:22:16;;;;;;;13.30;11.97;;;;;;;12.37;61.24;95572.66;5040098;28;20917;-81
2021/04/20 11:24:48;;;;;;;13.93;12.53;;;;;;;12.31;61.59;95563.09;5039073;28;20239;-81
2021/04/20 11:27:32;;;;;;;13.33;11.97;;;;;;;12.27;60.45;95564.44;5037117;28;20201;-79
2021/04/20 11:30:08;;;;;;;14.30;12.90;;;;;;;12.25;61.23;95563.81;5038855;28;20210;-81
2021/04/20 11:32:47;;;;;;;13.17;11.90;;;;;;;12.32;61.33;95560.28;5051824;28;20287;-82
2021/04/20 11:35:16;;;;;;;13.47;11.50;;;;;;;12.30;60.61;95567.44;5050044;28;20213;-80
2021/04/20 11:37:45;;;;;;;12.50;11.23;;;;;;;12.25;59.67;95563.81;5034047;28;20231;-81
2021/04/20 11:40:16;;;;;;;12.33;11.13;;;;;;;12.34;59.74;95563.50;5052339;28;20267;-81
2021/04/20 11:42:48;;;;;;;13.07;11.77;;;;;;;12.39;59.81;95555.97;5047365;28;20205;-79
2021/04/20 11:45:17;;;;;;;12.33;11.03;;;;;;;12.39;59.33;95561.16;5049364;28;20717;-83
2021/04/20 11:48:09;;;;;;;12.97;11.67;;;;;;;12.43;60.09;95557.22;5033284;28;20497;-79
2021/04/20 11:50:37;;;;;;;12.50;11.30;;;;;;;12.44;60.03;95552.84;5033480;28;21153;-83
2021/04/20 11:53:05;;;;;;;12.80;11.50;;;;;;;12.52;59.94;95547.50;5045868;28;20202;-83
2021/04/20 11:55:34;;;;;;;13.10;11.73;;;;;;;12.56;59.12;95540.19;5051177;28;20791;-80
2021/04/20 11:58:06;;;;;;;12.73;11.43;;;;;;;12.56;58.96;95541.00;5037798;28;20230;-80
2021/04/20 12:00:35;;;;;;;12.07;10.87;;;;;;;12.64;59.24;95550.38;5042801;28;20197;-82